Dades meteomassalio
Diari Summary for Febrer 4, 2017 Units:  Metric    English   Both
« Previous Day
Next Day »
Diari Semanal Mensual Anual Personalitzat
  Maxima: Minima: Mijana:
Temperatura: -17.8 °C -13.5 °C -10.7 °C
Rosada: -17.8 °C -14.8 °C -13.2 °C
Humitat: Humidity % 62 % 75 %
Velocitat del vent: 0 km/h 0 km/h 9.5 km/h
Racha vent: 0 km/h - -
Vent:- - West
Pressio: 0 hPa 34212.1 hPa -
Pluja: 0 mm    
Historical Graphs
 
 
Tabular Data for Febrer 4, 2017
Time Temperature Dew Point Pressure Wind Wind Speed Wind Gust Humidity Rainfall Rate (Hourly) solar Conditions
-17.8 °C -17.8 °C 0 hPa Calm     Humidity % 0 mm SolarRadiationWatts/m^2 W/m2 Conditions
00:04 -13.2 °C -14.7 °C 34337.4 hPa Calm     83 % 0 mm 0.0 W/m2 RA
00:09 -13.2 °C -14.7 °C 34337.4 hPa Calm     84 % 0 mm 0.0 W/m2 CLR
00:14 -13.3 °C -14.7 °C 34337.4 hPa Calm     84 % 0 mm 0.0 W/m2 CLR
00:19 -13.4 °C -14.7 °C 34337.4 hPa Calm     85 % 0 mm 0.0 W/m2 CLR
00:24 -13.4 °C -14.7 °C 34327.3 hPa Calm     85 % 0 mm 0.0 W/m2 CLR
00:29 -13.4 °C -14.8 °C 34327.3 hPa Calm     85 % 0 mm 0.0 W/m2 CLR
00:34 -13.5 °C -14.7 °C 34327.3 hPa Calm     86 % 0 mm 0.0 W/m2 CLR
00:39 -13.3 °C -14.6 °C 34313.7 hPa Calm     85 % 0 mm 0.0 W/m2 CLR
00:44 -13.3 °C -14.6 °C 34313.7 hPa SSW 15 km/h 15 km/h 85 % 0 mm 0.0 W/m2 CLR
00:49 -13.2 °C -14.6 °C 34303.6 hPa SSW 9 km/h 9 km/h 84 % 0 mm 0.0 W/m2 CLR
00:54 -13.1 °C -14.6 °C 34303.6 hPa SW 12.9 km/h 12.9 km/h 83 % 0 mm 0.0 W/m2 CLR
00:59 -12.7 °C -14.5 °C 34303.6 hPa SW 10.3 km/h 10.3 km/h 80 % 0 mm 0.0 W/m2 CLR
01:04 -12.4 °C -14.6 °C 34303.6 hPa SW 11.9 km/h 11.9 km/h 77 % 0 mm 0.0 W/m2 CLR
01:09 -12.4 °C -14.7 °C 34303.6 hPa Calm     76 % 0 mm 0.0 W/m2 CLR
01:14 -12.6 °C -14.7 °C 34303.6 hPa WSW 17.9 km/h 17.9 km/h 77 % 0 mm 0.0 W/m2 CLR
01:19 -12.6 °C -14.7 °C 34293.4 hPa SW 15 km/h 15 km/h 78 % 0 mm 0.0 W/m2 CLR
01:24 -12.5 °C -14.6 °C 34293.4 hPa WSW 20.9 km/h 20.9 km/h 77 % 0 mm 0.0 W/m2 CLR
01:29 -12.4 °C -14.6 °C 34293.4 hPa WSW 15.6 km/h 15.6 km/h 76 % 0 mm 0.0 W/m2 CLR
01:34 -12.2 °C -14.5 °C 34293.4 hPa WSW 15 km/h 15 km/h 75 % 0 mm 0.0 W/m2 CLR
01:39 -12.2 °C -14.6 °C 34279.9 hPa SW 20.9 km/h 20.9 km/h 74 % 0 mm 0.0 W/m2 CLR
01:44 -12.1 °C -14.6 °C 34279.9 hPa WSW 15.6 km/h 15.6 km/h 74 % 0 mm 0.0 W/m2 CLR
01:49 -12.2 °C -14.6 °C 34279.9 hPa WSW 10.3 km/h 10.3 km/h 74 % 0 mm 0.0 W/m2 CLR
01:54 -12.1 °C -14.6 °C 34279.9 hPa WSW 20.9 km/h 20.9 km/h 74 % 0 mm 0.0 W/m2 CLR
01:59 -11.9 °C -14.5 °C 34269.7 hPa SW 29.8 km/h 29.8 km/h 73 % 0 mm 0.0 W/m2 CLR
02:04 -12 °C -14.7 °C 34269.7 hPa SW 18.2 km/h 18.2 km/h 72 % 0 mm 0.0 W/m2 CLR
02:09 -12.2 °C -14.6 °C 34269.7 hPa WSW 11.9 km/h 11.9 km/h 74 % 0 mm 0.0 W/m2 CLR
02:14 -12.1 °C -14.6 °C 34269.7 hPa WSW 11.9 km/h 11.9 km/h 74 % 0 mm 0.0 W/m2 CLR
02:19 -11.9 °C -14.5 °C 34269.7 hPa WSW 18.2 km/h 18.2 km/h 73 % 0 mm 0.0 W/m2 CLR
02:24 -11.8 °C -14.4 °C 34269.7 hPa WSW 20.9 km/h 20.9 km/h 72 % 0 mm 0.0 W/m2 CLR
02:29 -11.6 °C -14.3 °C 34269.7 hPa WSW 26.9 km/h 26.9 km/h 72 % 0 mm 0.0 W/m2 CLR
02:34 -11.6 °C -14.4 °C 34269.7 hPa WSW 20.9 km/h 20.9 km/h 71 % 0 mm 0.0 W/m2 CLR
02:39 -11.6 °C -14.3 °C 34269.7 hPa WSW 20.9 km/h 20.9 km/h 71 % 0 mm 0.0 W/m2 CLR
02:44 -11.4 °C -14.2 °C 34256.2 hPa WSW 17.9 km/h 17.9 km/h 71 % 0 mm 0.0 W/m2 CLR
02:49 -11.3 °C -14.3 °C 34256.2 hPa WSW 23.8 km/h 23.8 km/h 70 % 0 mm 0.0 W/m2 CLR
02:54 -11.4 °C -14.3 °C 34246 hPa WSW 20.9 km/h 20.9 km/h 70 % 0 mm 0.0 W/m2 CLR
02:59 -11.3 °C -14.3 °C 34246 hPa WSW 15 km/h 15 km/h 70 % 0 mm 0.0 W/m2 CLR
03:04 -11.4 °C -14.3 °C 34246 hPa Calm     70 % 0 mm 0.0 W/m2 CLR
03:09 -11.5 °C -14.4 °C 34246 hPa WSW 9 km/h 9 km/h 70 % 0 mm 0.0 W/m2 CLR
03:14 -12 °C -14.6 °C 34235.8 hPa SW 29.8 km/h 29.8 km/h 73 % 0 mm 0.0 W/m2 CLR
03:19 -11.9 °C -14.3 °C 34246 hPa SW 20.9 km/h 20.9 km/h 74 % 0 mm 0.0 W/m2 CLR
03:24 -11.6 °C -14.3 °C 34246 hPa WSW 23.8 km/h 23.8 km/h 72 % 0 mm 0.0 W/m2 CLR
03:29 -11.4 °C -14.2 °C 34246 hPa WSW 9 km/h   71 % 0 mm 0.0 W/m2 CLR
03:34 -11.3 °C -14.2 °C 34235.8 hPa WSW 5.1 km/h 5.1 km/h 70 % 0 mm 0.0 W/m2 CLR
03:39 -11.7 °C -14.3 °C 34246 hPa Calm     72 % 0 mm 0.0 W/m2 CLR
03:45 -11.8 °C -14.3 °C 34246 hPa West 9 km/h 9 km/h 73 % 0 mm 0.0 W/m2 CLR
03:50 -11.8 °C -14.3 °C 34235.8 hPa Calm     74 % 0 mm 0.0 W/m2 CLR
03:55 -11.3 °C -14.1 °C 34222.3 hPa WSW 15 km/h 15 km/h 72 % 0 mm 0.0 W/m2 CLR
04:00 -10.7 °C -14 °C 34222.3 hPa West 29.8 km/h 29.8 km/h 67 % 0 mm 0.0 W/m2 CLR
04:05 -10.6 °C -14.1 °C 34222.3 hPa WSW 11.9 km/h 13.7 km/h 65 % 0 mm 0.0 W/m2 CLR
04:10 -10.5 °C -14.1 °C 34212.1 hPa Calm     65 % 0 mm 0.0 W/m2 CLR
04:15 -10.5 °C -14.1 °C 34222.3 hPa Calm     65 % 0 mm 0.0 W/m2 CLR
04:20 -10.6 °C -14.1 °C 34212.1 hPa Calm     66 % 0 mm 0.0 W/m2 CLR
04:25 -10.9 °C -14.2 °C 34212.1 hPa Calm   2.3 km/h 67 % 0 mm 0.0 W/m2 CLR
04:30 -10.9 °C -14.1 °C 34222.3 hPa West 17.9 km/h 17.9 km/h 68 % 0 mm 0.0 W/m2 CLR
04:35 -10.8 °C -14.1 °C 34235.8 hPa West 15 km/h 15 km/h 67 % 0 mm 0.0 W/m2 CLR
04:40 -10.9 °C -14.1 °C 34235.8 hPa Calm     68 % 0 mm 0.0 W/m2 CLR
04:45 -11.1 °C -14.1 °C 34235.8 hPa Calm     69 % 0 mm 0.0 W/m2 CLR
04:50 -11.4 °C -14.3 °C 34235.8 hPa Calm     70 % 0 mm 0.0 W/m2 CLR
04:55 -11.7 °C -14.3 °C 34235.8 hPa Calm     72 % 0 mm 0.0 W/m2 CLR
05:00 -12 °C -14.4 °C 34235.8 hPa East 9 km/h 9 km/h 74 % 0 mm 0.0 W/m2 CLR
05:05 -12.1 °C -14.6 °C 34235.8 hPa Calm     74 % 0 mm 0.0 W/m2 CLR
05:10 -12.1 °C -14.5 °C 34222.3 hPa Calm     75 % 0 mm 0.0 W/m2 CLR
05:15 -12.1 °C -14.4 °C 34222.3 hPa Calm     75 % 0 mm 0.0 W/m2 CLR
05:20 -12 °C -14.3 °C 34235.8 hPa South 3.1 km/h   75 % 0 mm 0.0 W/m2 CLR
05:25 -11.9 °C -14.3 °C 34235.8 hPa West 2.6 km/h   75 % 0 mm 0.0 W/m2 CLR
05:30 -11.4 °C -13.9 °C 34222.3 hPa West 26.9 km/h 26.9 km/h 74 % 0 mm 0.0 W/m2 CLR
05:35 -10.5 °C -13.7 °C 34235.8 hPa West 20.9 km/h 20.9 km/h 68 % 0 mm 0.0 W/m2 CLR
05:40 -10 °C -13.7 °C 34222.3 hPa WNW 23.3 km/h 23.3 km/h 64 % 0 mm 0.0 W/m2 CLR
05:45 -9.8 °C -13.8 °C 34212.1 hPa West 31.1 km/h 31.1 km/h 62 % 0 mm 0.0 W/m2 CLR
05:50 -9.7 °C -13.7 °C 34222.3 hPa West 32.8 km/h 32.8 km/h 62 % 0 mm 0.0 W/m2 CLR
05:55 -9.8 °C -13.7 °C 34222.3 hPa WNW 23.8 km/h 23.8 km/h 63 % 0 mm 0.0 W/m2 CLR
06:00 -9.9 °C -13.7 °C 34222.3 hPa WNW 26.9 km/h 26.9 km/h 63 % 0 mm 0.0 W/m2 CLR
06:05 -9.8 °C -13.7 °C 34222.3 hPa WNW 20.9 km/h 20.9 km/h 63 % 0 mm 0.0 W/m2 CLR
06:10 -9.8 °C -13.8 °C 34222.3 hPa NW 26.9 km/h 26.9 km/h 62 % 0 mm 0.0 W/m2 CLR
06:15 -9.9 °C -13.8 °C 34222.3 hPa NW 26.9 km/h 26.9 km/h 63 % 0 mm 0.0 W/m2 CLR
06:20 -9.8 °C -13.8 °C 34222.3 hPa NW 38.8 km/h 38.8 km/h 62 % 0 mm 0.0 W/m2 CLR
06:25 -9.8 °C -13.7 °C 34222.3 hPa NW 15 km/h 15 km/h 63 % 0 mm 0.0 W/m2 CLR
06:30 -9.9 °C -13.8 °C 34235.8 hPa NW 20.9 km/h 20.9 km/h 63 % 0 mm 0.0 W/m2 CLR
06:35 -9.8 °C -13.8 °C 34222.3 hPa WNW 38.8 km/h 38.8 km/h 62 % 0 mm 0.0 W/m2 CLR
06:40 -9.7 °C -13.7 °C 34222.3 hPa WNW 36.2 km/h 36.2 km/h 62 % 0 mm 0.0 W/m2 CLR
06:45 -9.8 °C -13.7 °C 34222.3 hPa WNW 29.8 km/h 29.8 km/h 63 % 0 mm 0.0 W/m2 CLR
06:50 -9.9 °C -13.7 °C 34222.3 hPa NW 23.8 km/h 23.8 km/h 63 % 0 mm 0.0 W/m2 CLR
06:55 -9.9 °C -13.8 °C 34222.3 hPa NW 15.6 km/h 15.6 km/h 63 % 0 mm 0.0 W/m2 CLR
07:00 -10 °C -13.7 °C 34235.8 hPa NW 12.9 km/h 12.9 km/h 64 % 0 mm 0.0 W/m2 CLR
07:05 -10.1 °C -13.8 °C 34235.8 hPa NW 17.9 km/h 17.9 km/h 64 % 0 mm 0.0 W/m2 CLR
07:10 -10.1 °C -13.8 °C 34235.8 hPa WNW 23.8 km/h 23.8 km/h 64 % 0 mm 0.0 W/m2 CLR
07:15 -10.1 °C -13.8 °C 34235.8 hPa WNW 20.9 km/h 20.9 km/h 64 % 0 mm 0.0 W/m2 CLR
07:20 -10.2 °C -13.9 °C 34246 hPa NW 20.9 km/h 20.9 km/h 64 % 0 mm 0.0 W/m2 CLR
07:25 -10.1 °C -13.8 °C 34246 hPa NNW 11.9 km/h 11.9 km/h 64 % 0 mm 0.0 W/m2 CLR
07:30 -10.2 °C -13.8 °C 34246 hPa NW 11.9 km/h 11.9 km/h 64 % 0 mm 0.0 W/m2 CLR
07:35 -10.2 °C -13.8 °C 34246 hPa NW 15 km/h 15 km/h 64 % 0 mm 0.0 W/m2 CLR
07:40 -10.2 °C -13.8 °C 34246 hPa WNW 17.9 km/h 17.9 km/h 65 % 0 mm 0.0 W/m2 CLR
07:45 -10.1 °C -13.8 °C 34246 hPa WNW 29.8 km/h 29.8 km/h 64 % 0 mm 0.0 W/m2 CLR
07:50 -10.1 °C -13.8 °C 34256.2 hPa WNW 12.9 km/h 12.9 km/h 64 % 0 mm 0.0 W/m2 CLR
07:55 -10.1 °C -13.8 °C 34256.2 hPa NW 3.1 km/h   64 % 0 mm 0.0 W/m2 CLR
08:00 -10.1 °C -13.8 °C 34269.7 hPa NNW 17.9 km/h 17.9 km/h 64 % 0 mm 0.0 W/m2 OVC
08:06 -10.2 °C -13.8 °C 34269.7 hPa NW 12.9 km/h 12.9 km/h 65 % 0 mm 0.0 W/m2 OVC
08:11 -10.2 °C -13.8 °C 34269.7 hPa WNW 26.9 km/h 26.9 km/h 65 % 0 mm 0.0 W/m2 OVC
08:16 -10.2 °C -13.8 °C 34269.7 hPa WNW 17.9 km/h 17.9 km/h 65 % 0 mm 7.0 W/m2 BKN
08:21 -10.2 °C -13.7 °C 34279.9 hPa WNW 9 km/h 9 km/h 66 % 0 mm 12.0 W/m2 BKN
08:26 -10.2 °C -13.7 °C 34279.9 hPa WNW 17.9 km/h 17.9 km/h 66 % 0 mm 21.0 W/m2 BKN
08:31 -10.1 °C -13.6 °C 34279.9 hPa WNW 35.7 km/h 35.7 km/h 66 % 0 mm 28.0 W/m2 BKN
08:36 -9.9 °C -13.6 °C 34279.9 hPa WNW 17.9 km/h 17.9 km/h 65 % 0 mm 40.0 W/m2 BKN
08:41 -9.9 °C -13.6 °C 34293.4 hPa WNW 15 km/h 15 km/h 65 % 0 mm 54.0 W/m2 SCT
08:46 -10 °C -13.5 °C 34279.9 hPa WNW 12.9 km/h 12.9 km/h 66 % 0 mm 67.0 W/m2 FEW
08:51 -10.1 °C -13.4 °C 34293.4 hPa WNW 15 km/h 15 km/h 67 % 0 mm 76.0 W/m2 FEW
08:56 -10.1 °C -13.4 °C 34303.6 hPa NW 9 km/h 9 km/h 67 % 0 mm 105.0 W/m2 CLR
09:01 -9.9 °C -13.4 °C 34303.6 hPa Calm     66 % 0 mm 123.0 W/m2 CLR
09:06 -9.9 °C -13.4 °C 34293.4 hPa Calm     66 % 0 mm 144.0 W/m2 CLR
09:11 -9.8 °C -13.4 °C 34293.4 hPa WNW 9 km/h   65 % 0 mm 165.0 W/m2 CLR
09:16 -9.6 °C -13.3 °C 34293.4 hPa West 12.9 km/h 12.9 km/h 64 % 0 mm 116.0 W/m2 CLR
09:21 -9.5 °C -13.4 °C 34293.4 hPa West 26.9 km/h 26.9 km/h 63 % 0 mm 128.0 W/m2 CLR
09:26 -9.4 °C -13.4 °C 34293.4 hPa West 26.9 km/h 26.9 km/h 62 % 0 mm 118.0 W/m2 CLR
09:31 -9.4 °C -13.3 °C 34313.7 hPa WNW 35.7 km/h 35.7 km/h 63 % 0 mm 90.0 W/m2 CLR
09:32 -9.5 °C -13.4 °C 34303.6 hPa WNW 32.8 km/h 32.8 km/h 63 % 0 mm 95.0 W/m2 CLR
09:37 -9.6 °C -13.4 °C 34303.6 hPa WNW 20.9 km/h 20.9 km/h 63 % 0 mm 42.0 W/m2 FEW
09:42 -9.6 °C -13.3 °C 34303.6 hPa West 15 km/h 15 km/h 64 % 0 mm 174.0 W/m2 SCT
09:47 -9.5 °C -13.2 °C 34313.7 hPa WNW 35.7 km/h 35.7 km/h 64 % 0 mm 186.0 W/m2 FEW
09:52 -9.4 °C -13.2 °C 34313.7 hPa NW 17.9 km/h 17.9 km/h 64 % 0 mm 230.0 W/m2 CLR
09:57 -9.3 °C -13.2 °C 34313.7 hPa NW 17.9 km/h 17.9 km/h 63 % 0 mm 250.0 W/m2 CLR
10:02 -9.1 °C -13 °C 34313.7 hPa NW 29.8 km/h 29.8 km/h 63 % 0 mm 269.0 W/m2 CLR
10:07 -9.1 °C -12.9 °C 34327.3 hPa NW 26.9 km/h 26.9 km/h 63 % 0 mm 292.0 W/m2 CLR
10:12 -9 °C -13 °C 34327.3 hPa NW 17.9 km/h 17.9 km/h 62 % 0 mm 350.0 W/m2 CLR
10:17 -8.9 °C -12.8 °C 34327.3 hPa NNW 31.1 km/h 31.1 km/h 63 % 0 mm 359.0 W/m2 CLR
10:22 -9 °C -12.9 °C 34327.3 hPa NNW 17.9 km/h 17.9 km/h 63 % 0 mm 308.0 W/m2 CLR
10:27 -9 °C -12.9 °C 34327.3 hPa NNW 20.9 km/h 20.9 km/h 63 % 0 mm 346.0 W/m2 CLR
10:32 -8.9 °C -12.8 °C 34327.3 hPa NNW 23.8 km/h 23.8 km/h 63 % 0 mm 202.0 W/m2 CLR
10:37 -8.9 °C -12.8 °C 34327.3 hPa NNW 17.9 km/h 17.9 km/h 63 % 0 mm 336.0 W/m2 CLR
10:42 -8.9 °C -12.7 °C 34337.4 hPa NNW 11.9 km/h 11.9 km/h 64 % 0 mm 148.0 W/m2 CLR
10:47 -8.9 °C -12.8 °C 34337.4 hPa NNW 9 km/h 9 km/h 63 % 0 mm 174.0 W/m2 CLR
10:52 -8.9 °C -12.7 °C 34337.4 hPa NNW 18.2 km/h 18.2 km/h 64 % 0 mm 260.0 W/m2 CLR
10:57 -8.9 °C -12.6 °C 34337.4 hPa North 12.9 km/h 12.9 km/h 65 % 0 mm 221.0 W/m2 CLR
11:02 -8.8 °C -12.3 °C 34337.4 hPa North 2.6 km/h   66 % 0 mm 229.0 W/m2 CLR
11:07 -8.7 °C -12.6 °C 34337.4 hPa NNW 23.8 km/h 23.8 km/h 64 % 0 mm 241.0 W/m2 CLR
11:12 -8.8 °C -12.6 °C 34337.4 hPa NNW 29.8 km/h 29.8 km/h 64 % 0 mm 265.0 W/m2 CLR
11:17 -8.8 °C -12.4 °C 34337.4 hPa NNW 26.9 km/h 26.9 km/h 65 % 0 mm 302.0 W/m2 CLR
11:22 -8.8 °C -12.4 °C 34337.4 hPa NNW 15 km/h 15 km/h 65 % 0 mm 192.0 W/m2 CLR
11:27 -8.8 °C -12.6 °C 34337.4 hPa NNW 20.9 km/h 20.9 km/h 64 % 0 mm 225.0 W/m2 CLR
11:32 -8.8 °C -12.6 °C 34337.4 hPa North 15 km/h 15 km/h 64 % 0 mm 171.0 W/m2 CLR
11:37 -8.8 °C -12.4 °C 34337.4 hPa North 17.9 km/h 17.9 km/h 66 % 0 mm 174.0 W/m2 CLR
11:42 -8.9 °C -12.6 °C 34337.4 hPa NNW 23.8 km/h 23.8 km/h 65 % 0 mm 264.0 W/m2 CLR
11:47 -8.8 °C -12.2 °C 34337.4 hPa NNW 9 km/h 9 km/h 67 % 0 mm 264.0 W/m2 CLR
11:52 -8.8 °C -12.4 °C 34337.4 hPa NNW 20.9 km/h 20.9 km/h 65 % 0 mm 176.0 W/m2 CLR
11:54 -8.8 °C -12.6 °C 34337.4 hPa North 11.9 km/h 11.9 km/h 64 % 0 mm 176.0 W/m2 CLR
11:59 -8.8 °C -12.4 °C 34337.4 hPa NNW 15 km/h 15 km/h 65 % 0 mm 156.0 W/m2 CLR
12:04 -8.8 °C -12.4 °C 34337.4 hPa NNW 18.2 km/h 18.2 km/h 65 % 0 mm 139.0 W/m2 CLR
12:09 -8.8 °C -12.5 °C 34347.6 hPa NNW 29.8 km/h 29.8 km/h 65 % 0 mm 169.0 W/m2 CLR
12:14 -8.8 °C -12.5 °C 34347.6 hPa NNW 29.8 km/h 29.8 km/h 65 % 0 mm 81.0 W/m2 CLR
12:19 -8.9 °C -12.4 °C 34347.6 hPa NNW 29.8 km/h 29.8 km/h 66 % 0 mm 84.0 W/m2 CLR
12:24 -9.1 °C -12.4 °C 34347.6 hPa North 28.5 km/h 28.5 km/h 68 % 0 mm 88.0 W/m2 CLR
12:29 -9.3 °C -12.4 °C 34347.6 hPa North 38.8 km/h 38.8 km/h 69 % 0 mm 132.0 W/m2 CLR
12:34 -9.5 °C -12.3 °C 34347.6 hPa North 29.8 km/h 29.8 km/h 72 % 0 mm 200.0 W/m2 CLR
12:39 -9.6 °C -12.2 °C 34337.4 hPa North 26.9 km/h 26.9 km/h 73 % 0 mm 237.0 W/m2 CLR
12:45 -9.6 °C -12.2 °C 34337.4 hPa North 35.7 km/h 35.7 km/h 74 % 0 mm 258.0 W/m2 CLR
12:50 -9.6 °C -12.1 °C 34337.4 hPa North 29.8 km/h 29.8 km/h 75 % 0 mm 220.0 W/m2 CLR
12:55 -9.6 °C -11.9 °C 34337.4 hPa NNE 29.8 km/h 29.8 km/h 76 % 0 mm 232.0 W/m2 CLR
13:00 -9.8 °C -11.8 °C 34327.3 hPa NNE 23.3 km/h 23.3 km/h 79 % 0 mm 213.0 W/m2 CLR
13:05 -9.9 °C -11.8 °C 34327.3 hPa NE 32.8 km/h 32.8 km/h 80 % 0 mm 251.0 W/m2 CLR
13:10 -10 °C -11.8 °C 34337.4 hPa NNE 26.9 km/h 26.9 km/h 81 % 0 mm 318.0 W/m2 CLR
13:15 -10 °C -11.8 °C 34327.3 hPa NNE 9 km/h 9 km/h 81 % 0 mm 406.0 W/m2 CLR
13:20 -9.9 °C -11.7 °C 34327.3 hPa North 9 km/h 9 km/h 81 % 0 mm 366.0 W/m2 CLR
13:25 -9.8 °C -11.6 °C 34327.3 hPa Calm     81 % 0 mm 241.0 W/m2 CLR
13:30 -9.8 °C -11.7 °C 34313.7 hPa Calm     80 % 0 mm 302.0 W/m2 CLR
13:35 -9.8 °C -11.8 °C 34313.7 hPa Calm     79 % 0 mm 174.0 W/m2 CLR
13:40 -9.8 °C -11.9 °C 34313.7 hPa North 9 km/h 9 km/h 78 % 0 mm 216.0 W/m2 CLR
13:45 -9.8 °C -11.8 °C 34313.7 hPa Calm     79 % 0 mm 213.0 W/m2 CLR
13:50 -9.8 °C -11.8 °C 34313.7 hPa Calm     79 % 0 mm 260.0 W/m2 CLR
13:55 -9.7 °C -11.7 °C 34313.7 hPa Calm     79 % 0 mm 359.0 W/m2 CLR
14:00 -9.6 °C -11.6 °C 34313.7 hPa Calm     79 % 0 mm 309.0 W/m2 CLR
14:05 -9.5 °C -11.6 °C 34313.7 hPa Calm     78 % 0 mm 443.0 W/m2 CLR
14:10 -9.4 °C -11.6 °C 34303.6 hPa Calm     78 % 0 mm 362.0 W/m2 CLR
14:15 -9.3 °C -11.6 °C 34303.6 hPa Calm     77 % 0 mm 362.0 W/m2 CLR
14:20 -9.3 °C -11.7 °C 34303.6 hPa Calm     76 % 0 mm 265.0 W/m2 CLR
14:25 -9.4 °C -11.8 °C 34303.6 hPa Calm     75 % 0 mm 232.0 W/m2 CLR
14:30 -9.4 °C -11.7 °C 34293.4 hPa Calm     76 % 0 mm 255.0 W/m2 CLR
14:35 -9.4 °C -11.8 °C 34303.6 hPa Calm     75 % 0 mm 295.0 W/m2 CLR
14:36 -9.4 °C -11.8 °C 34303.6 hPa Calm     76 % 0 mm 279.0 W/m2 CLR
14:41 -9.4 °C -11.8 °C 34303.6 hPa NNE 9 km/h 9 km/h 75 % 0 mm 239.0 W/m2 CLR
14:46 -9.4 °C -11.8 °C 34303.6 hPa Calm     75 % 0 mm 202.0 W/m2 CLR
14:51 -9.4 °C -11.8 °C 34303.6 hPa Calm     75 % 0 mm 202.0 W/m2 CLR
14:56 -9.4 °C -12 °C 34303.6 hPa Calm     74 % 0 mm 174.0 W/m2 CLR
15:01 -9.4 °C -11.9 °C 34303.6 hPa Calm     75 % 0 mm 178.0 W/m2 CLR
15:06 -9.4 °C -11.9 °C 34303.6 hPa Calm     75 % 0 mm 148.0 W/m2 CLR
15:11 -9.4 °C -11.9 °C 34303.6 hPa Calm     75 % 0 mm 113.0 W/m2 CLR
15:16 -9.5 °C -11.9 °C 34303.6 hPa NE 9 km/h 9 km/h 75 % 0 mm 93.0 W/m2 CLR
15:18 -9.6 °C -12 °C 34303.6 hPa NE 9 km/h 9 km/h 75 % 0 mm 88.0 W/m2 CLR
15:23 -9.6 °C -12.1 °C 34303.6 hPa Calm     75 % 0 mm 77.0 W/m2 CLR
15:28 -9.7 °C -12 °C 34313.7 hPa NE 9 km/h 9 km/h 76 % 0 mm 47.0 W/m2 FEW
15:33 -9.8 °C -12.1 °C 34313.7 hPa Calm     76 % 0 mm 40.0 W/m2 SCT
15:38 -9.8 °C -12.1 °C 34327.3 hPa Calm     77 % 0 mm 35.0 W/m2 BKN
15:43 -9.9 °C -12 °C 34327.3 hPa Calm     78 % 0 mm 32.0 W/m2 BKN
15:48 -9.9 °C -12.1 °C 34327.3 hPa Calm     78 % 0 mm 30.0 W/m2 BKN
15:53 -9.9 °C -12.2 °C 34313.7 hPa Calm     77 % 0 mm 47.0 W/m2 BKN
15:58 -9.9 °C -12.2 °C 34327.3 hPa Calm     77 % 0 mm 46.0 W/m2 BKN
16:03 -9.9 °C -12.1 °C 34327.3 hPa Calm     78 % 0 mm 46.0 W/m2 BKN
16:08 -10 °C -12.1 °C 34313.7 hPa Calm     78 % 0 mm 58.0 W/m2 SCT
16:13 -10 °C -12.1 °C 34313.7 hPa Calm     78 % 0 mm 95.0 W/m2 SCT
16:18 -10 °C -12.1 °C 34313.7 hPa Calm     78 % 0 mm 88.0 W/m2 FEW
16:23 -9.9 °C -12 °C 34313.7 hPa Calm     79 % 0 mm 63.0 W/m2 FEW
16:28 -9.9 °C -12.1 °C 34313.7 hPa Calm     78 % 0 mm 142.0 W/m2 FEW
16:31 -9.9 °C -12.1 °C 34313.7 hPa Calm     78 % 0 mm 172.0 W/m2 CLR
16:36 -9.9 °C -12 °C 34303.6 hPa Calm     78 % 0 mm 165.0 W/m2 CLR
16:41 -9.8 °C -12.1 °C 34303.6 hPa Calm     77 % 0 mm 193.0 W/m2 CLR
16:46 -9.8 °C -12 °C 34303.6 hPa Calm     77 % 0 mm 167.0 W/m2 CLR
16:51 -9.8 °C -12.1 °C 34303.6 hPa ENE 5.1 km/h 5.1 km/h 76 % 0 mm 153.0 W/m2 CLR
16:56 -9.8 °C -12.1 °C 34303.6 hPa Calm     76 % 0 mm 167.0 W/m2 CLR
17:01 -9.8 °C -12.1 °C 34303.6 hPa Calm     76 % 0 mm 107.0 W/m2 CLR
17:06 -9.8 °C -12.2 °C 34303.6 hPa Calm     76 % 0 mm 91.0 W/m2 CLR
17:11 -9.9 °C -12.2 °C 34303.6 hPa Calm     76 % 0 mm 77.0 W/m2 CLR
17:16 -9.9 °C -12.2 °C 34303.6 hPa Calm     77 % 0 mm 63.0 W/m2 FEW
17:21 -10 °C -12.2 °C 34303.6 hPa Calm     77 % 0 mm 63.0 W/m2 SCT
17:26 -10.1 °C -12.2 °C 34293.4 hPa Calm     77 % 0 mm 53.0 W/m2 SCT
17:31 -10.1 °C -12.3 °C 34293.4 hPa Calm     77 % 0 mm 46.0 W/m2 SCT
17:36 -10.1 °C -12.3 °C 34293.4 hPa Calm     77 % 0 mm 37.0 W/m2 BKN
17:41 -10.2 °C -12.3 °C 34293.4 hPa Calm     77 % 0 mm 33.0 W/m2 BKN
17:46 -10.2 °C -12.3 °C 34293.4 hPa Calm     78 % 0 mm 28.0 W/m2 BKN
17:51 -10.2 °C -12.3 °C 34293.4 hPa Calm     78 % 0 mm 26.0 W/m2 BKN
17:56 -10.3 °C -12.3 °C 34293.4 hPa Calm     79 % 0 mm 23.0 W/m2 BKN
18:01 -10.3 °C -12.3 °C 34293.4 hPa Calm     79 % 0 mm 16.0 W/m2 BKN
18:06 -10.4 °C -12.4 °C 34303.6 hPa Calm     79 % 0 mm 11.0 W/m2 BKN
18:11 -10.5 °C -12.4 °C 34303.6 hPa Calm     80 % 0 mm 7.0 W/m2 BKN
18:16 -10.5 °C -12.4 °C 34303.6 hPa Calm     80 % 0 mm 0.0 W/m2 OVC
18:21 -10.6 °C -12.5 °C 34303.6 hPa Calm     80 % 0 mm 0.0 W/m2 OVC
18:26 -10.7 °C -12.4 °C 34303.6 hPa Calm     81 % 0 mm 0.0 W/m2 OVC
18:32 -10.7 °C -12.4 °C 34303.6 hPa Calm     81 % 0 mm 0.0 W/m2 CLR
18:37 -10.7 °C -12.4 °C 34303.6 hPa Calm     82 % 0 mm 0.0 W/m2 CLR
18:42 -10.8 °C -12.4 °C 34303.6 hPa Calm     82 % 0 mm 0.0 W/m2 CLR
18:47 -10.8 °C -12.5 °C 34303.6 hPa Calm     82 % 0 mm 0.0 W/m2 CLR
18:52 -10.9 °C -12.4 °C 34303.6 hPa Calm     83 % 0 mm 0.0 W/m2 CLR
18:57 -10.9 °C -12.5 °C 34303.6 hPa Calm     83 % 0 mm 0.0 W/m2 CLR
19:02 -11 °C -12.4 °C 34293.4 hPa Calm     84 % 0 mm 0.0 W/m2 CLR
19:07 -11.1 °C -12.5 °C 34303.6 hPa Calm     84 % 0 mm 0.0 W/m2 CLR
19:12 -11.2 °C -12.6 °C 34293.4 hPa Calm     84 % 0 mm 0.0 W/m2 CLR
19:17 -11.3 °C -12.6 °C 34293.4 hPa Calm     85 % 0 mm 0.0 W/m2 CLR
19:22 -11.4 °C -12.7 °C 34293.4 hPa Calm     85 % 0 mm 0.0 W/m2 CLR
19:27 -11.4 °C -12.7 °C 34293.4 hPa Calm     86 % 0 mm 0.0 W/m2 CLR
19:32 -11.6 °C -12.8 °C 34293.4 hPa Calm     86 % 0 mm 0.0 W/m2 CLR
19:37 -11.6 °C -12.7 °C 34293.4 hPa Calm     87 % 0 mm 0.0 W/m2 CLR
19:42 -11.7 °C -12.8 °C 34293.4 hPa Calm     87 % 0 mm 0.0 W/m2 CLR
19:47 -11.8 °C -12.9 °C 34293.4 hPa Calm     87 % 0 mm 0.0 W/m2 CLR
19:52 -11.8 °C -12.9 °C 34279.9 hPa Calm     87 % 0 mm 0.0 W/m2 CLR
19:57 -11.9 °C -12.9 °C 34279.9 hPa Calm     88 % 0 mm 0.0 W/m2 CLR
20:02 -12 °C -13 °C 34279.9 hPa Calm     88 % 0 mm 0.0 W/m2 CLR
20:07 -12.1 °C -13.1 °C 34279.9 hPa Calm     88 % 0 mm 0.0 W/m2 CLR
20:12 -12.1 °C -13.2 °C 34279.9 hPa Calm     88 % 0 mm 0.0 W/m2 CLR
20:17 -12.1 °C -13.1 °C 34279.9 hPa Calm     89 % 0 mm 0.0 W/m2 CLR
20:22 -12.2 °C -13.1 °C 34279.9 hPa Calm     89 % 0 mm 0.0 W/m2 CLR
20:27 -12.2 °C -13.2 °C 34279.9 hPa Calm     89 % 0 mm 0.0 W/m2 CLR
20:32 -12.1 °C -12.9 °C 34279.9 hPa WSW 10.3 km/h 10.3 km/h 90 % 0 mm 0.0 W/m2 CLR
20:37 -12 °C -12.8 °C 34279.9 hPa Calm     90 % 0 mm 0.0 W/m2 CLR
20:42 -12 °C -12.9 °C 34279.9 hPa Calm     89 % 0 mm 0.0 W/m2 CLR
20:47 -12 °C -12.9 °C 34279.9 hPa Calm     89 % 0 mm 0.0 W/m2 CLR
20:52 -12.1 °C -13 °C 34269.7 hPa Calm     89 % 0 mm 0.0 W/m2 CLR
20:57 -12.1 °C -13.1 °C 34269.7 hPa Calm     88 % 0 mm 0.0 W/m2 CLR
21:02 -12.1 °C -13.1 °C 34269.7 hPa Calm     89 % 0 mm 0.0 W/m2 CLR
21:07 -12.1 °C -13.1 °C 34269.7 hPa Calm     89 % 0 mm 0.0 W/m2 CLR
21:12 -12.2 °C -13.2 °C 34269.7 hPa Calm     89 % 0 mm 0.0 W/m2 CLR
21:17 -12.1 °C -12.9 °C 34269.7 hPa WSW 9 km/h   90 % 0 mm 0.0 W/m2 CLR
21:22 -12 °C -12.8 °C 34256.2 hPa Calm     90 % 0 mm 0.0 W/m2 CLR
21:27 -11.9 °C -12.9 °C 34256.2 hPa Calm     89 % 0 mm 0.0 W/m2 CLR
21:32 -11.8 °C -12.8 °C 34256.2 hPa Calm     89 % 0 mm 0.0 W/m2 CLR
21:37 -11.9 °C -12.9 °C 34256.2 hPa Calm     88 % 0 mm 0.0 W/m2 CLR
21:42 -11.9 °C -12.9 °C 34256.2 hPa Calm     88 % 0 mm 0.0 W/m2 CLR
21:47 -12 °C -13.1 °C 34256.2 hPa Calm     88 % 0 mm 0.0 W/m2 CLR
21:52 -12.1 °C -13.2 °C 34246 hPa Calm     88 % 0 mm 0.0 W/m2 CLR
21:57 -12.3 °C -13.3 °C 34246 hPa Calm     88 % 0 mm 0.0 W/m2 CLR
22:02 -12.3 °C -13.2 °C 34256.2 hPa Calm     89 % 0 mm 0.0 W/m2 CLR
22:07 -12.3 °C -13.2 °C 34256.2 hPa Calm     89 % 0 mm 0.0 W/m2 CLR
22:12 -12.4 °C -13.3 °C 34246 hPa Calm     89 % 0 mm 0.0 W/m2 CLR
22:17 -12.4 °C -13.4 °C 34246 hPa Calm     89 % 0 mm 0.0 W/m2 CLR
22:22 -12.4 °C -13.3 °C 34246 hPa Calm     90 % 0 mm 0.0 W/m2 CLR
22:27 -12.3 °C -13.2 °C 34246 hPa Calm     90 % 0 mm 0.0 W/m2 CLR
22:32 -12.3 °C -13.3 °C 34246 hPa Calm     89 % 0 mm 0.0 W/m2 CLR
22:37 -12.4 °C -13.4 °C 34246 hPa Calm     89 % 0 mm 0.0 W/m2 CLR
22:42 -12.3 °C -13.2 °C 34246 hPa Calm     90 % 0 mm 0.0 W/m2 CLR
22:47 -12.2 °C -13.2 °C 34246 hPa Calm     89 % 0 mm 0.0 W/m2 CLR
22:52 -12.2 °C -13.4 °C 34246 hPa Calm     87 % 0 mm 0.0 W/m2 CLR
22:57 -12.3 °C -13.5 °C 34246 hPa Calm     87 % 0 mm 0.0 W/m2 CLR
23:02 -12.4 °C -13.4 °C 34246 hPa Calm     88 % 0 mm 0.0 W/m2 CLR
23:07 -12.4 °C -13.5 °C 34235.8 hPa Calm     88 % 0 mm 0.0 W/m2 CLR
23:12 -12.6 °C -13.6 °C 34235.8 hPa Calm     88 % 0 mm 0.0 W/m2 CLR
23:17 -12.6 °C -13.6 °C 34235.8 hPa Calm     89 % 0 mm 0.0 W/m2 CLR
23:22 -12.7 °C -13.7 °C 34235.8 hPa Calm     89 % 0 mm 0.0 W/m2 CLR
23:27 -12.7 °C -13.6 °C 34235.8 hPa Calm     90 % 0 mm 0.0 W/m2 CLR
23:32 -12.8 °C -13.7 °C 34222.3 hPa Calm     90 % 0 mm 0.0 W/m2 CLR
23:37 -12.9 °C -13.7 °C 34222.3 hPa Calm     90 % 0 mm 0.0 W/m2 CLR
23:42 -12.9 °C -13.8 °C 34222.3 hPa Calm     90 % 0 mm 0.0 W/m2 CLR
23:48 -12.9 °C -13.8 °C 34222.3 hPa Calm     90 % 0 mm 0.0 W/m2 CLR
23:53 -13 °C -13.8 °C 34222.3 hPa Calm     91 % 0 mm 0.0 W/m2 CLR
23:58 -13 °C -13.8 °C 34222.3 hPa Calm     91 % 0 mm 0.0 W/m2 CLR
Lo Temps de Massalio
Compliments of Weather Underground - 1.25 mb